sensor_id;sensor_type;location;lat;lon;timestamp;P1;durP1;ratioP1;P2;durP2;ratioP2
41709;SDS011;59402;48.396;-4.472;2023-04-10T00:01:02;23.30;;;10.40;;
41709;SDS011;59402;48.396;-4.472;2023-04-10T00:03:27;24.55;;;10.77;;
41709;SDS011;59402;48.396;-4.472;2023-04-10T00:05:54;19.88;;;9.68;;
41709;SDS011;59402;48.396;-4.472;2023-04-10T00:08:21;19.48;;;9.98;;
41709;SDS011;59402;48.396;-4.472;2023-04-10T00:10:48;17.60;;;8.47;;
41709;SDS011;59402;48.396;-4.472;2023-04-10T00:13:14;21.63;;;9.20;;
41709;SDS011;59402;48.396;-4.472;2023-04-10T00:15:40;19.70;;;8.73;;
41709;SDS011;59402;48.396;-4.472;2023-04-10T00:18:06;24.73;;;9.25;;
41709;SDS011;59402;48.396;-4.472;2023-04-10T00:20:32;16.00;;;8.18;;
41709;SDS011;59402;48.396;-4.472;2023-04-10T00:22:58;18.23;;;8.20;;
41709;SDS011;59402;48.396;-4.472;2023-04-10T00:25:23;14.38;;;7.43;;
41709;SDS011;59402;48.396;-4.472;2023-04-10T00:27:50;18.77;;;8.17;;
41709;SDS011;59402;48.396;-4.472;2023-04-10T00:30:18;19.77;;;7.70;;
41709;SDS011;59402;48.396;-4.472;2023-04-10T00:32:44;22.00;;;7.73;;
41709;SDS011;59402;48.396;-4.472;2023-04-10T00:35:10;17.65;;;7.90;;
41709;SDS011;59402;48.396;-4.472;2023-04-10T00:37:35;20.55;;;7.43;;
41709;SDS011;59402;48.396;-4.472;2023-04-10T00:40:02;16.67;;;8.18;;
41709;SDS011;59402;48.396;-4.472;2023-04-10T00:42:28;20.05;;;7.85;;
41709;SDS011;59402;48.396;-4.472;2023-04-10T00:44:54;23.10;;;7.65;;
41709;SDS011;59402;48.396;-4.472;2023-04-10T00:47:20;16.88;;;7.88;;
41709;SDS011;59402;48.396;-4.472;2023-04-10T00:49:46;18.90;;;7.85;;
41709;SDS011;59402;48.396;-4.472;2023-04-10T00:52:11;19.05;;;7.95;;
41709;SDS011;59402;48.396;-4.472;2023-04-10T00:54:37;16.45;;;7.03;;
41709;SDS011;59402;48.396;-4.472;2023-04-10T00:57:04;21.92;;;7.30;;
41709;SDS011;59402;48.396;-4.472;2023-04-10T00:59:30;17.13;;;8.10;;
41709;SDS011;59402;48.396;-4.472;2023-04-10T01:01:56;22.13;;;8.68;;
41709;SDS011;59402;48.396;-4.472;2023-04-10T01:04:22;16.80;;;8.07;;
41709;SDS011;59402;48.396;-4.472;2023-04-10T01:09:28;25.02;;;11.23;;
41709;SDS011;59402;48.396;-4.472;2023-04-10T01:12:06;28.38;;;9.95;;
41709;SDS011;59402;48.396;-4.472;2023-04-10T01:14:45;22.90;;;9.10;;
41709;SDS011;59402;48.396;-4.472;2023-04-10T01:23:05;26.10;;;8.75;;
41709;SDS011;59402;48.396;-4.472;2023-04-10T01:31:33;17.85;;;6.13;;
41709;SDS011;59402;48.396;-4.472;2023-04-10T01:34:07;26.45;;;6.95;;
41709;SDS011;59402;48.396;-4.472;2023-04-10T01:36:55;20.23;;;6.45;;
41709;SDS011;59402;48.396;-4.472;2023-04-10T01:39:26;19.08;;;6.25;;
41709;SDS011;59402;48.396;-4.472;2023-04-10T01:44:33;18.40;;;5.60;;
41709;SDS011;59402;48.396;-4.472;2023-04-10T01:49:28;15.35;;;5.95;;
41709;SDS011;59402;48.396;-4.472;2023-04-10T01:52:01;15.50;;;6.65;;
41709;SDS011;59402;48.396;-4.472;2023-04-10T01:54:27;19.20;;;5.43;;
41709;SDS011;59402;48.396;-4.472;2023-04-10T01:56:56;21.52;;;6.47;;
41709;SDS011;59402;48.396;-4.472;2023-04-10T01:59:26;14.98;;;6.20;;
41709;SDS011;59402;48.396;-4.472;2023-04-10T02:01:59;19.77;;;5.28;;
41709;SDS011;59402;48.396;-4.472;2023-04-10T02:04:26;15.93;;;4.95;;
41709;SDS011;59402;48.396;-4.472;2023-04-10T02:07:02;21.45;;;4.40;;
41709;SDS011;59402;48.396;-4.472;2023-04-10T02:09:39;15.48;;;4.95;;
41709;SDS011;59402;48.396;-4.472;2023-04-10T02:12:21;14.10;;;4.68;;
41709;SDS011;59402;48.396;-4.472;2023-04-10T02:14:52;15.15;;;5.00;;
41709;SDS011;59402;48.396;-4.472;2023-04-10T02:17:19;20.33;;;6.07;;
41709;SDS011;59402;48.396;-4.472;2023-04-10T02:19:50;18.38;;;5.93;;
41709;SDS011;59402;48.396;-4.472;2023-04-10T02:22:17;19.20;;;6.00;;
41709;SDS011;59402;48.396;-4.472;2023-04-10T02:24:43;24.90;;;7.07;;
41709;SDS011;59402;48.396;-4.472;2023-04-10T02:27:09;17.80;;;6.20;;
41709;SDS011;59402;48.396;-4.472;2023-04-10T02:29:35;23.20;;;7.22;;
41709;SDS011;59402;48.396;-4.472;2023-04-10T02:32:01;28.38;;;8.02;;
41709;SDS011;59402;48.396;-4.472;2023-04-10T02:34:28;25.02;;;8.45;;
41709;SDS011;59402;48.396;-4.472;2023-04-10T02:36:53;28.50;;;8.90;;
41709;SDS011;59402;48.396;-4.472;2023-04-10T02:39:19;24.35;;;9.75;;
41709;SDS011;59402;48.396;-4.472;2023-04-10T02:41:50;29.30;;;11.57;;
41709;SDS011;59402;48.396;-4.472;2023-04-10T02:44:16;41.15;;;11.60;;
41709;SDS011;59402;48.396;-4.472;2023-04-10T02:46:42;56.92;;;11.90;;
41709;SDS011;59402;48.396;-4.472;2023-04-10T02:49:09;48.50;;;12.98;;
41709;SDS011;59402;48.396;-4.472;2023-04-10T02:51:35;38.95;;;13.00;;
41709;SDS011;59402;48.396;-4.472;2023-04-10T02:54:02;42.67;;;12.48;;
41709;SDS011;59402;48.396;-4.472;2023-04-10T02:56:32;30.45;;;11.45;;
41709;SDS011;59402;48.396;-4.472;2023-04-10T02:58:59;26.60;;;11.15;;
41709;SDS011;59402;48.396;-4.472;2023-04-10T03:01:25;30.02;;;11.63;;
41709;SDS011;59402;48.396;-4.472;2023-04-10T03:03:51;27.02;;;10.05;;
41709;SDS011;59402;48.396;-4.472;2023-04-10T03:06:25;24.02;;;10.13;;
41709;SDS011;59402;48.396;-4.472;2023-04-10T03:08:53;24.92;;;10.32;;
41709;SDS011;59402;48.396;-4.472;2023-04-10T03:11:18;31.58;;;10.40;;
41709;SDS011;59402;48.396;-4.472;2023-04-10T03:13:44;25.83;;;9.30;;
41709;SDS011;59402;48.396;-4.472;2023-04-10T03:16:11;27.30;;;10.32;;
41709;SDS011;59402;48.396;-4.472;2023-04-10T03:18:37;22.70;;;9.20;;
41709;SDS011;59402;48.396;-4.472;2023-04-10T03:21:03;25.83;;;10.00;;
41709;SDS011;59402;48.396;-4.472;2023-04-10T03:23:29;34.42;;;11.48;;
41709;SDS011;59402;48.396;-4.472;2023-04-10T03:25:55;27.83;;;10.70;;
41709;SDS011;59402;48.396;-4.472;2023-04-10T03:28:25;31.60;;;11.27;;
41709;SDS011;59402;48.396;-4.472;2023-04-10T03:30:52;31.38;;;11.73;;
41709;SDS011;59402;48.396;-4.472;2023-04-10T03:33:17;30.33;;;10.95;;
41709;SDS011;59402;48.396;-4.472;2023-04-10T03:35:44;29.13;;;10.40;;
41709;SDS011;59402;48.396;-4.472;2023-04-10T03:38:10;28.17;;;10.73;;
41709;SDS011;59402;48.396;-4.472;2023-04-10T03:40:36;31.23;;;10.85;;
41709;SDS011;59402;48.396;-4.472;2023-04-10T03:43:04;30.50;;;10.45;;
41709;SDS011;59402;48.396;-4.472;2023-04-10T03:45:31;40.63;;;10.98;;
41709;SDS011;59402;48.396;-4.472;2023-04-10T03:47:58;31.73;;;10.38;;
41709;SDS011;59402;48.396;-4.472;2023-04-10T03:50:25;27.77;;;11.35;;
41709;SDS011;59402;48.396;-4.472;2023-04-10T03:52:56;38.08;;;11.60;;
41709;SDS011;59402;48.396;-4.472;2023-04-10T03:55:24;32.47;;;11.23;;
41709;SDS011;59402;48.396;-4.472;2023-04-10T03:57:50;29.52;;;11.05;;
41709;SDS011;59402;48.396;-4.472;2023-04-10T04:00:19;30.05;;;10.75;;
41709;SDS011;59402;48.396;-4.472;2023-04-10T04:02:45;29.48;;;9.77;;
41709;SDS011;59402;48.396;-4.472;2023-04-10T04:05:15;34.30;;;10.35;;
41709;SDS011;59402;48.396;-4.472;2023-04-10T04:07:43;33.50;;;10.63;;
41709;SDS011;59402;48.396;-4.472;2023-04-10T04:10:20;25.63;;;9.50;;
41709;SDS011;59402;48.396;-4.472;2023-04-10T04:12:59;26.17;;;9.60;;
41709;SDS011;59402;48.396;-4.472;2023-04-10T04:15:48;27.55;;;8.52;;
41709;SDS011;59402;48.396;-4.472;2023-04-10T04:18:34;36.42;;;9.68;;
41709;SDS011;59402;48.396;-4.472;2023-04-10T04:21:18;65.97;;;10.20;;
41709;SDS011;59402;48.396;-4.472;2023-04-10T04:24:19;29.75;;;8.10;;
41709;SDS011;59402;48.396;-4.472;2023-04-10T04:27:14;76.95;;;10.27;;
41709;SDS011;59402;48.396;-4.472;2023-04-10T04:30:03;128.60;;;12.80;;
41709;SDS011;59402;48.396;-4.472;2023-04-10T04:32:46;161.45;;;13.98;;
41709;SDS011;59402;48.396;-4.472;2023-04-10T04:35:46;25.35;;;9.32;;
41709;SDS011;59402;48.396;-4.472;2023-04-10T04:38:15;28.95;;;8.73;;
41709;SDS011;59402;48.396;-4.472;2023-04-10T04:41:19;28.67;;;8.48;;
41709;SDS011;59402;48.396;-4.472;2023-04-10T04:44:14;24.13;;;7.97;;
41709;SDS011;59402;48.396;-4.472;2023-04-10T04:46:48;25.55;;;7.63;;
41709;SDS011;59402;48.396;-4.472;2023-04-10T04:49:14;25.48;;;7.93;;
41709;SDS011;59402;48.396;-4.472;2023-04-10T04:51:45;26.83;;;7.20;;
41709;SDS011;59402;48.396;-4.472;2023-04-10T04:54:24;25.02;;;7.85;;
41709;SDS011;59402;48.396;-4.472;2023-04-10T04:57:10;22.98;;;8.43;;
41709;SDS011;59402;48.396;-4.472;2023-04-10T04:59:54;25.13;;;8.20;;
41709;SDS011;59402;48.396;-4.472;2023-04-10T05:02:38;25.95;;;7.88;;
41709;SDS011;59402;48.396;-4.472;2023-04-10T05:05:24;31.63;;;8.73;;
41709;SDS011;59402;48.396;-4.472;2023-04-10T05:10:50;26.05;;;8.25;;
41709;SDS011;59402;48.396;-4.472;2023-04-10T05:13:35;26.70;;;8.20;;
41709;SDS011;59402;48.396;-4.472;2023-04-10T05:16:11;25.63;;;7.43;;
41709;SDS011;59402;48.396;-4.472;2023-04-10T05:18:56;24.00;;;8.88;;
41709;SDS011;59402;48.396;-4.472;2023-04-10T05:21:42;21.42;;;7.75;;
41709;SDS011;59402;48.396;-4.472;2023-04-10T05:24:22;29.85;;;8.70;;
41709;SDS011;59402;48.396;-4.472;2023-04-10T05:27:08;31.15;;;9.65;;
41709;SDS011;59402;48.396;-4.472;2023-04-10T05:29:52;39.25;;;8.90;;
41709;SDS011;59402;48.396;-4.472;2023-04-10T05:32:41;40.03;;;9.55;;
41709;SDS011;59402;48.396;-4.472;2023-04-10T05:35:36;36.88;;;9.65;;
41709;SDS011;59402;48.396;-4.472;2023-04-10T05:38:11;33.92;;;8.27;;
41709;SDS011;59402;48.396;-4.472;2023-04-10T05:41:00;34.15;;;9.48;;
41709;SDS011;59402;48.396;-4.472;2023-04-10T05:43:37;53.13;;;9.90;;
41709;SDS011;59402;48.396;-4.472;2023-04-10T05:46:11;58.13;;;11.20;;
41709;SDS011;59402;48.396;-4.472;2023-04-10T05:48:57;64.03;;;9.97;;
41709;SDS011;59402;48.396;-4.472;2023-04-10T05:51:36;55.40;;;9.95;;
41709;SDS011;59402;48.396;-4.472;2023-04-10T05:54:15;38.22;;;8.32;;
41709;SDS011;59402;48.396;-4.472;2023-04-10T05:57:00;33.63;;;8.80;;
41709;SDS011;59402;48.396;-4.472;2023-04-10T05:59:48;31.08;;;7.30;;
41709;SDS011;59402;48.396;-4.472;2023-04-10T06:02:33;29.83;;;6.63;;
41709;SDS011;59402;48.396;-4.472;2023-04-10T06:04:59;29.52;;;6.15;;
41709;SDS011;59402;48.396;-4.472;2023-04-10T06:07:25;18.38;;;5.75;;
41709;SDS011;59402;48.396;-4.472;2023-04-10T06:09:51;32.30;;;7.30;;
41709;SDS011;59402;48.396;-4.472;2023-04-10T06:12:17;38.72;;;7.82;;
41709;SDS011;59402;48.396;-4.472;2023-04-10T06:14:43;60.13;;;9.63;;
41709;SDS011;59402;48.396;-4.472;2023-04-10T06:17:10;42.38;;;9.00;;
41709;SDS011;59402;48.396;-4.472;2023-04-10T06:19:36;33.95;;;8.45;;
41709;SDS011;59402;48.396;-4.472;2023-04-10T06:22:01;33.75;;;8.75;;
41709;SDS011;59402;48.396;-4.472;2023-04-10T06:24:27;35.50;;;8.70;;
41709;SDS011;59402;48.396;-4.472;2023-04-10T06:26:53;33.85;;;8.38;;
41709;SDS011;59402;48.396;-4.472;2023-04-10T06:29:21;33.90;;;8.98;;
41709;SDS011;59402;48.396;-4.472;2023-04-10T06:31:47;33.58;;;8.00;;
41709;SDS011;59402;48.396;-4.472;2023-04-10T06:34:14;42.50;;;9.32;;
41709;SDS011;59402;48.396;-4.472;2023-04-10T06:36:50;35.70;;;8.60;;
41709;SDS011;59402;48.396;-4.472;2023-04-10T06:39:16;37.15;;;8.32;;
41709;SDS011;59402;48.396;-4.472;2023-04-10T06:41:42;33.90;;;8.13;;
41709;SDS011;59402;48.396;-4.472;2023-04-10T06:44:30;41.97;;;8.95;;
41709;SDS011;59402;48.396;-4.472;2023-04-10T06:46:56;41.95;;;10.98;;
41709;SDS011;59402;48.396;-4.472;2023-04-10T06:49:22;39.58;;;8.98;;
41709;SDS011;59402;48.396;-4.472;2023-04-10T06:51:48;33.80;;;9.25;;
41709;SDS011;59402;48.396;-4.472;2023-04-10T06:54:14;44.05;;;9.27;;
41709;SDS011;59402;48.396;-4.472;2023-04-10T06:56:40;29.25;;;8.27;;
41709;SDS011;59402;48.396;-4.472;2023-04-10T06:59:06;34.40;;;7.85;;
41709;SDS011;59402;48.396;-4.472;2023-04-10T07:01:32;35.25;;;9.02;;
41709;SDS011;59402;48.396;-4.472;2023-04-10T07:03:57;32.78;;;8.32;;
41709;SDS011;59402;48.396;-4.472;2023-04-10T07:06:23;29.50;;;7.40;;
41709;SDS011;59402;48.396;-4.472;2023-04-10T07:08:50;23.15;;;6.78;;
41709;SDS011;59402;48.396;-4.472;2023-04-10T07:11:16;32.65;;;7.78;;
41709;SDS011;59402;48.396;-4.472;2023-04-10T07:13:41;30.40;;;8.00;;
41709;SDS011;59402;48.396;-4.472;2023-04-10T07:16:07;30.73;;;6.05;;
41709;SDS011;59402;48.396;-4.472;2023-04-10T07:18:33;32.05;;;7.03;;
41709;SDS011;59402;48.396;-4.472;2023-04-10T07:21:00;31.27;;;7.95;;
41709;SDS011;59402;48.396;-4.472;2023-04-10T07:23:26;32.88;;;6.57;;
41709;SDS011;59402;48.396;-4.472;2023-04-10T07:25:52;34.17;;;7.15;;
41709;SDS011;59402;48.396;-4.472;2023-04-10T07:28:17;31.67;;;7.57;;
41709;SDS011;59402;48.396;-4.472;2023-04-10T07:30:43;35.47;;;8.30;;
41709;SDS011;59402;48.396;-4.472;2023-04-10T07:33:09;37.33;;;9.05;;
41709;SDS011;59402;48.396;-4.472;2023-04-10T07:35:35;38.95;;;8.55;;
41709;SDS011;59402;48.396;-4.472;2023-04-10T07:38:00;36.70;;;7.35;;
41709;SDS011;59402;48.396;-4.472;2023-04-10T07:40:26;37.13;;;7.45;;
41709;SDS011;59402;48.396;-4.472;2023-04-10T07:42:52;32.05;;;7.25;;
41709;SDS011;59402;48.396;-4.472;2023-04-10T07:45:18;35.47;;;7.22;;
41709;SDS011;59402;48.396;-4.472;2023-04-10T07:47:43;38.15;;;7.32;;
41709;SDS011;59402;48.396;-4.472;2023-04-10T07:50:09;53.90;;;9.00;;
41709;SDS011;59402;48.396;-4.472;2023-04-10T07:52:35;29.83;;;6.95;;
41709;SDS011;59402;48.396;-4.472;2023-04-10T07:55:01;37.70;;;7.78;;
41709;SDS011;59402;48.396;-4.472;2023-04-10T07:57:28;35.53;;;7.55;;
41709;SDS011;59402;48.396;-4.472;2023-04-10T07:59:53;38.33;;;7.60;;
41709;SDS011;59402;48.396;-4.472;2023-04-10T08:02:21;28.27;;;6.32;;
41709;SDS011;59402;48.396;-4.472;2023-04-10T08:04:46;39.92;;;7.60;;
41709;SDS011;59402;48.396;-4.472;2023-04-10T08:07:12;32.95;;;7.20;;
41709;SDS011;59402;48.396;-4.472;2023-04-10T08:09:38;43.10;;;8.07;;
41709;SDS011;59402;48.396;-4.472;2023-04-10T08:12:03;29.15;;;7.10;;
41709;SDS011;59402;48.396;-4.472;2023-04-10T08:14:29;30.25;;;7.00;;
41709;SDS011;59402;48.396;-4.472;2023-04-10T08:16:55;29.02;;;7.20;;
41709;SDS011;59402;48.396;-4.472;2023-04-10T08:19:21;30.65;;;6.10;;
41709;SDS011;59402;48.396;-4.472;2023-04-10T08:21:47;32.25;;;6.22;;
41709;SDS011;59402;48.396;-4.472;2023-04-10T08:24:13;31.08;;;6.70;;
41709;SDS011;59402;48.396;-4.472;2023-04-10T08:26:38;38.20;;;6.75;;
41709;SDS011;59402;48.396;-4.472;2023-04-10T08:29:04;32.70;;;6.22;;
41709;SDS011;59402;48.396;-4.472;2023-04-10T08:31:30;23.75;;;6.25;;
41709;SDS011;59402;48.396;-4.472;2023-04-10T08:33:56;32.33;;;6.82;;
41709;SDS011;59402;48.396;-4.472;2023-04-10T08:36:22;35.13;;;7.05;;
41709;SDS011;59402;48.396;-4.472;2023-04-10T08:38:48;28.67;;;6.57;;
41709;SDS011;59402;48.396;-4.472;2023-04-10T08:41:14;36.08;;;7.22;;
41709;SDS011;59402;48.396;-4.472;2023-04-10T08:43:41;42.72;;;7.35;;
41709;SDS011;59402;48.396;-4.472;2023-04-10T08:46:07;32.08;;;8.20;;
41709;SDS011;59402;48.396;-4.472;2023-04-10T08:48:56;39.67;;;7.85;;
41709;SDS011;59402;48.396;-4.472;2023-04-10T08:51:28;30.92;;;7.32;;
41709;SDS011;59402;48.396;-4.472;2023-04-10T08:53:57;28.35;;;7.43;;
41709;SDS011;59402;48.396;-4.472;2023-04-10T08:56:29;34.05;;;7.93;;
41709;SDS011;59402;48.396;-4.472;2023-04-10T08:58:55;31.80;;;7.47;;
41709;SDS011;59402;48.396;-4.472;2023-04-10T09:01:21;33.33;;;6.70;;
41709;SDS011;59402;48.396;-4.472;2023-04-10T09:03:47;37.03;;;6.45;;
41709;SDS011;59402;48.396;-4.472;2023-04-10T09:06:13;33.92;;;6.38;;
41709;SDS011;59402;48.396;-4.472;2023-04-10T09:08:38;30.75;;;6.97;;
41709;SDS011;59402;48.396;-4.472;2023-04-10T09:11:04;32.38;;;7.00;;
41709;SDS011;59402;48.396;-4.472;2023-04-10T09:13:34;36.90;;;7.68;;
41709;SDS011;59402;48.396;-4.472;2023-04-10T09:16:08;33.97;;;7.13;;
41709;SDS011;59402;48.396;-4.472;2023-04-10T09:21:17;37.10;;;7.13;;
41709;SDS011;59402;48.396;-4.472;2023-04-10T09:23:44;41.67;;;7.82;;
41709;SDS011;59402;48.396;-4.472;2023-04-10T09:26:29;31.15;;;6.45;;
41709;SDS011;59402;48.396;-4.472;2023-04-10T09:31:36;36.67;;;6.88;;
41709;SDS011;59402;48.396;-4.472;2023-04-10T09:36:41;34.80;;;6.03;;
41709;SDS011;59402;48.396;-4.472;2023-04-10T09:39:09;33.38;;;6.90;;
41709;SDS011;59402;48.396;-4.472;2023-04-10T09:41:48;36.00;;;6.90;;
41709;SDS011;59402;48.396;-4.472;2023-04-10T09:44:15;34.33;;;7.20;;
41709;SDS011;59402;48.396;-4.472;2023-04-10T09:46:43;37.58;;;6.88;;
41709;SDS011;59402;48.396;-4.472;2023-04-10T09:49:10;34.30;;;6.72;;
41709;SDS011;59402;48.396;-4.472;2023-04-10T09:51:36;40.38;;;7.07;;
41709;SDS011;59402;48.396;-4.472;2023-04-10T09:54:03;35.38;;;6.78;;
41709;SDS011;59402;48.396;-4.472;2023-04-10T09:56:29;31.55;;;6.63;;
41709;SDS011;59402;48.396;-4.472;2023-04-10T09:58:59;33.05;;;6.07;;
41709;SDS011;59402;48.396;-4.472;2023-04-10T10:01:26;35.17;;;6.82;;
41709;SDS011;59402;48.396;-4.472;2023-04-10T10:04:00;33.28;;;6.93;;
41709;SDS011;59402;48.396;-4.472;2023-04-10T10:06:26;31.55;;;6.53;;
41709;SDS011;59402;48.396;-4.472;2023-04-10T10:08:53;36.85;;;7.18;;
41709;SDS011;59402;48.396;-4.472;2023-04-10T10:11:22;36.55;;;7.72;;
41709;SDS011;59402;48.396;-4.472;2023-04-10T10:13:49;37.08;;;6.38;;
41709;SDS011;59402;48.396;-4.472;2023-04-10T10:16:24;39.03;;;6.13;;
41709;SDS011;59402;48.396;-4.472;2023-04-10T10:21:20;36.83;;;6.87;;
41709;SDS011;59402;48.396;-4.472;2023-04-10T10:23:47;42.80;;;7.32;;
41709;SDS011;59402;48.396;-4.472;2023-04-10T10:26:18;32.80;;;6.00;;
41709;SDS011;59402;48.396;-4.472;2023-04-10T10:28:44;33.60;;;6.67;;
41709;SDS011;59402;48.396;-4.472;2023-04-10T10:31:11;30.55;;;6.85;;
41709;SDS011;59402;48.396;-4.472;2023-04-10T10:33:38;37.38;;;7.85;;
41709;SDS011;59402;48.396;-4.472;2023-04-10T10:36:04;39.05;;;6.72;;
41709;SDS011;59402;48.396;-4.472;2023-04-10T10:38:30;34.70;;;6.55;;
41709;SDS011;59402;48.396;-4.472;2023-04-10T10:40:59;36.00;;;7.10;;
41709;SDS011;59402;48.396;-4.472;2023-04-10T10:46:11;42.58;;;6.82;;
41709;SDS011;59402;48.396;-4.472;2023-04-10T10:49:03;40.92;;;7.55;;
41709;SDS011;59402;48.396;-4.472;2023-04-10T10:54:33;26.90;;;6.70;;
41709;SDS011;59402;48.396;-4.472;2023-04-10T10:56:59;29.35;;;6.15;;
41709;SDS011;59402;48.396;-4.472;2023-04-10T11:02:14;35.80;;;6.65;;
41709;SDS011;59402;48.396;-4.472;2023-04-10T11:04:43;36.95;;;7.68;;
41709;SDS011;59402;48.396;-4.472;2023-04-10T11:07:10;32.08;;;6.32;;
41709;SDS011;59402;48.396;-4.472;2023-04-10T11:09:58;36.97;;;6.35;;
41709;SDS011;59402;48.396;-4.472;2023-04-10T11:12:23;40.22;;;6.40;;
41709;SDS011;59402;48.396;-4.472;2023-04-10T11:14:59;23.93;;;5.30;;
41709;SDS011;59402;48.396;-4.472;2023-04-10T11:17:45;34.25;;;6.43;;
41709;SDS011;59402;48.396;-4.472;2023-04-10T11:20:15;26.92;;;5.13;;
41709;SDS011;59402;48.396;-4.472;2023-04-10T11:25:46;37.13;;;5.65;;
41709;SDS011;59402;48.396;-4.472;2023-04-10T11:33:47;24.20;;;5.25;;
41709;SDS011;59402;48.396;-4.472;2023-04-10T11:36:38;27.17;;;5.90;;
41709;SDS011;59402;48.396;-4.472;2023-04-10T11:39:11;28.35;;;5.50;;
41709;SDS011;59402;48.396;-4.472;2023-04-10T11:44:04;27.10;;;5.72;;
41709;SDS011;59402;48.396;-4.472;2023-04-10T11:46:34;19.48;;;5.00;;
41709;SDS011;59402;48.396;-4.472;2023-04-10T11:49:04;28.27;;;5.82;;
41709;SDS011;59402;48.396;-4.472;2023-04-10T11:51:31;24.15;;;5.18;;
41709;SDS011;59402;48.396;-4.472;2023-04-10T11:56:31;28.10;;;5.25;;
41709;SDS011;59402;48.396;-4.472;2023-04-10T11:58:56;27.52;;;4.45;;
41709;SDS011;59402;48.396;-4.472;2023-04-10T12:01:23;30.73;;;5.60;;
41709;SDS011;59402;48.396;-4.472;2023-04-10T12:03:49;26.70;;;5.05;;
41709;SDS011;59402;48.396;-4.472;2023-04-10T12:06:14;25.60;;;5.15;;
41709;SDS011;59402;48.396;-4.472;2023-04-10T12:08:41;21.80;;;3.83;;
41709;SDS011;59402;48.396;-4.472;2023-04-10T12:11:12;23.00;;;4.32;;
41709;SDS011;59402;48.396;-4.472;2023-04-10T12:13:38;24.08;;;4.55;;
41709;SDS011;59402;48.396;-4.472;2023-04-10T12:16:08;20.75;;;4.90;;
41709;SDS011;59402;48.396;-4.472;2023-04-10T12:18:34;21.98;;;4.20;;
41709;SDS011;59402;48.396;-4.472;2023-04-10T12:21:01;29.00;;;5.80;;
41709;SDS011;59402;48.396;-4.472;2023-04-10T12:23:27;24.00;;;5.10;;
41709;SDS011;59402;48.396;-4.472;2023-04-10T12:26:15;21.08;;;4.32;;
41709;SDS011;59402;48.396;-4.472;2023-04-10T12:28:41;24.10;;;4.70;;
41709;SDS011;59402;48.396;-4.472;2023-04-10T12:31:14;24.27;;;5.32;;
41709;SDS011;59402;48.396;-4.472;2023-04-10T12:33:46;23.23;;;5.43;;
41709;SDS011;59402;48.396;-4.472;2023-04-10T12:36:21;26.60;;;5.20;;
41709;SDS011;59402;48.396;-4.472;2023-04-10T12:38:48;24.08;;;4.50;;
41709;SDS011;59402;48.396;-4.472;2023-04-10T12:41:13;21.15;;;5.47;;
41709;SDS011;59402;48.396;-4.472;2023-04-10T12:43:50;25.90;;;4.68;;
41709;SDS011;59402;48.396;-4.472;2023-04-10T12:46:26;25.35;;;5.38;;
41709;SDS011;59402;48.396;-4.472;2023-04-10T12:48:53;28.52;;;5.03;;
41709;SDS011;59402;48.396;-4.472;2023-04-10T12:54:08;31.05;;;6.45;;
41709;SDS011;59402;48.396;-4.472;2023-04-10T12:56:43;33.42;;;6.82;;
41709;SDS011;59402;48.396;-4.472;2023-04-10T12:59:12;29.70;;;6.38;;
41709;SDS011;59402;48.396;-4.472;2023-04-10T13:01:38;24.90;;;5.28;;
41709;SDS011;59402;48.396;-4.472;2023-04-10T13:04:04;25.75;;;5.40;;
41709;SDS011;59402;48.396;-4.472;2023-04-10T13:06:30;29.10;;;6.35;;
41709;SDS011;59402;48.396;-4.472;2023-04-10T13:08:56;31.65;;;5.80;;
41709;SDS011;59402;48.396;-4.472;2023-04-10T13:11:21;24.13;;;5.30;;
41709;SDS011;59402;48.396;-4.472;2023-04-10T13:13:48;28.63;;;6.00;;
41709;SDS011;59402;48.396;-4.472;2023-04-10T13:16:14;32.60;;;5.43;;
41709;SDS011;59402;48.396;-4.472;2023-04-10T13:18:40;30.52;;;5.40;;
41709;SDS011;59402;48.396;-4.472;2023-04-10T13:21:06;26.65;;;5.65;;
41709;SDS011;59402;48.396;-4.472;2023-04-10T13:23:32;23.85;;;5.40;;
41709;SDS011;59402;48.396;-4.472;2023-04-10T13:25:58;26.52;;;5.22;;
41709;SDS011;59402;48.396;-4.472;2023-04-10T13:28:23;22.73;;;4.57;;
41709;SDS011;59402;48.396;-4.472;2023-04-10T13:30:49;26.70;;;5.05;;
41709;SDS011;59402;48.396;-4.472;2023-04-10T13:33:16;22.52;;;4.38;;
41709;SDS011;59402;48.396;-4.472;2023-04-10T13:35:42;16.52;;;4.03;;
41709;SDS011;59402;48.396;-4.472;2023-04-10T13:38:08;26.58;;;5.53;;
41709;SDS011;59402;48.396;-4.472;2023-04-10T13:43:01;25.15;;;5.45;;
41709;SDS011;59402;48.396;-4.472;2023-04-10T13:45:27;24.08;;;5.25;;
41709;SDS011;59402;48.396;-4.472;2023-04-10T13:47:52;28.73;;;5.30;;
41709;SDS011;59402;48.396;-4.472;2023-04-10T13:50:18;32.97;;;6.65;;
41709;SDS011;59402;48.396;-4.472;2023-04-10T13:52:44;27.90;;;5.55;;
41709;SDS011;59402;48.396;-4.472;2023-04-10T13:55:10;35.45;;;6.30;;
41709;SDS011;59402;48.396;-4.472;2023-04-10T13:57:36;25.45;;;5.68;;
41709;SDS011;59402;48.396;-4.472;2023-04-10T14:00:02;30.45;;;6.68;;
41709;SDS011;59402;48.396;-4.472;2023-04-10T14:02:37;28.20;;;5.85;;
41709;SDS011;59402;48.396;-4.472;2023-04-10T14:05:03;33.75;;;5.45;;
41709;SDS011;59402;48.396;-4.472;2023-04-10T14:07:29;28.42;;;5.25;;
41709;SDS011;59402;48.396;-4.472;2023-04-10T14:09:57;34.10;;;5.22;;
41709;SDS011;59402;48.396;-4.472;2023-04-10T14:12:23;47.45;;;6.38;;
41709;SDS011;59402;48.396;-4.472;2023-04-10T14:14:49;47.83;;;6.88;;
41709;SDS011;59402;48.396;-4.472;2023-04-10T14:17:15;39.58;;;7.28;;
41709;SDS011;59402;48.396;-4.472;2023-04-10T14:19:41;36.42;;;7.30;;
41709;SDS011;59402;48.396;-4.472;2023-04-10T14:22:07;46.78;;;7.45;;
41709;SDS011;59402;48.396;-4.472;2023-04-10T14:24:32;42.53;;;6.75;;
41709;SDS011;59402;48.396;-4.472;2023-04-10T14:26:58;42.00;;;7.55;;
41709;SDS011;59402;48.396;-4.472;2023-04-10T14:29:26;34.63;;;6.40;;
41709;SDS011;59402;48.396;-4.472;2023-04-10T14:31:52;42.80;;;7.57;;
41709;SDS011;59402;48.396;-4.472;2023-04-10T14:34:18;37.55;;;6.35;;
41709;SDS011;59402;48.396;-4.472;2023-04-10T14:36:44;33.65;;;6.00;;
41709;SDS011;59402;48.396;-4.472;2023-04-10T14:39:09;35.60;;;5.93;;
41709;SDS011;59402;48.396;-4.472;2023-04-10T14:41:35;27.15;;;4.45;;
41709;SDS011;59402;48.396;-4.472;2023-04-10T14:44:01;22.90;;;3.88;;
41709;SDS011;59402;48.396;-4.472;2023-04-10T14:46:27;14.07;;;2.63;;
41709;SDS011;59402;48.396;-4.472;2023-04-10T14:48:52;10.95;;;1.98;;
41709;SDS011;59402;48.396;-4.472;2023-04-10T14:51:18;19.75;;;2.92;;
41709;SDS011;59402;48.396;-4.472;2023-04-10T14:53:44;16.20;;;2.70;;
41709;SDS011;59402;48.396;-4.472;2023-04-10T14:56:14;17.55;;;3.15;;
41709;SDS011;59402;48.396;-4.472;2023-04-10T14:58:40;20.88;;;3.17;;
41709;SDS011;59402;48.396;-4.472;2023-04-10T15:01:08;19.40;;;3.28;;
41709;SDS011;59402;48.396;-4.472;2023-04-10T15:03:34;21.75;;;3.95;;
41709;SDS011;59402;48.396;-4.472;2023-04-10T15:06:00;25.63;;;4.32;;
41709;SDS011;59402;48.396;-4.472;2023-04-10T15:08:26;17.60;;;3.60;;
41709;SDS011;59402;48.396;-4.472;2023-04-10T15:10:51;30.15;;;5.03;;
41709;SDS011;59402;48.396;-4.472;2023-04-10T15:13:17;29.52;;;5.15;;
41709;SDS011;59402;48.396;-4.472;2023-04-10T15:15:44;31.73;;;5.05;;
41709;SDS011;59402;48.396;-4.472;2023-04-10T15:20:38;26.70;;;5.13;;
41709;SDS011;59402;48.396;-4.472;2023-04-10T15:23:03;32.20;;;5.40;;
41709;SDS011;59402;48.396;-4.472;2023-04-10T15:25:31;30.35;;;4.50;;
41709;SDS011;59402;48.396;-4.472;2023-04-10T15:27:57;24.17;;;4.47;;
41709;SDS011;59402;48.396;-4.472;2023-04-10T15:30:23;28.73;;;4.60;;
41709;SDS011;59402;48.396;-4.472;2023-04-10T15:32:49;29.38;;;4.75;;
41709;SDS011;59402;48.396;-4.472;2023-04-10T15:35:14;32.60;;;5.57;;
41709;SDS011;59402;48.396;-4.472;2023-04-10T15:37:40;22.55;;;4.25;;